createdAt,value
2022-12-19T00:04:45.551Z,99031.00
2022-12-19T00:09:52.208Z,99014.00
2022-12-19T00:14:55.213Z,99009.00
2022-12-19T00:20:00.410Z,99020.00
2022-12-19T00:25:06.974Z,99004.00
2022-12-19T00:30:10.984Z,99007.00
2022-12-19T00:35:14.252Z,99010.00
2022-12-19T00:40:18.127Z,98993.00
2022-12-19T00:45:21.208Z,98989.00
2022-12-19T00:50:25.332Z,98977.00
2022-12-19T00:55:28.563Z,98966.00
2022-12-19T01:00:31.673Z,98970.00
2022-12-19T01:05:40.811Z,98968.00
2022-12-19T01:11:02.207Z,98972.00
2022-12-19T01:16:26.288Z,98958.00
2022-12-19T01:21:44.934Z,98952.00
2022-12-19T01:26:51.152Z,98957.00
2022-12-19T01:32:14.374Z,98951.00
2022-12-19T01:37:35.206Z,98954.00
2022-12-19T01:43:01.746Z,98946.00
2022-12-19T01:48:28.187Z,98948.00
2022-12-19T01:54:04.043Z,98946.00
2022-12-19T01:59:17.276Z,98945.00
2022-12-19T02:04:39.481Z,98934.00
2022-12-19T02:09:57.171Z,98930.00
2022-12-19T02:15:32.456Z,98931.00
2022-12-19T02:21:20.869Z,98930.00
2022-12-19T02:27:14.540Z,98927.00
2022-12-19T02:32:41.402Z,98941.00
2022-12-19T02:38:20.450Z,98958.00
2022-12-19T02:43:40.605Z,98957.00
2022-12-19T02:48:58.632Z,98959.00
2022-12-19T02:54:09.545Z,98940.00
2022-12-19T02:59:42.780Z,98946.00
2022-12-19T03:05:09.788Z,98953.00
2022-12-19T03:10:38.503Z,98961.00
2022-12-19T03:15:43.259Z,98968.00
2022-12-19T03:21:22.321Z,98972.00
2022-12-19T03:26:43.757Z,98972.00
2022-12-19T03:32:09.444Z,98957.00
2022-12-19T03:37:29.928Z,98959.00
2022-12-19T03:43:15.313Z,98958.00
2022-12-19T03:48:39.854Z,98945.00
2022-12-19T03:53:48.103Z,98934.00
2022-12-19T03:59:07.007Z,98942.00
2022-12-19T04:04:25.843Z,98942.00
2022-12-19T04:09:42.098Z,98943.00
2022-12-19T04:14:45.910Z,98923.00
2022-12-19T04:20:08.705Z,98919.00
2022-12-19T04:25:15.816Z,98927.00
2022-12-19T04:30:19.837Z,98921.00
2022-12-19T04:35:23.150Z,98912.00
2022-12-19T04:40:26.744Z,98918.00
2022-12-19T04:45:29.782Z,98916.00
2022-12-19T04:50:34.429Z,98930.00
2022-12-19T04:55:37.610Z,98923.00
2022-12-19T05:00:40.672Z,98903.00
2022-12-19T05:06:28.975Z,98908.00
2022-12-19T05:11:50.035Z,98895.00
2022-12-19T05:17:13.204Z,98910.00
2022-12-19T05:22:31.656Z,98900.00
2022-12-19T05:27:48.191Z,98892.00
2022-12-19T05:32:57.810Z,98886.00
2022-12-19T05:38:14.003Z,98903.00
2022-12-19T05:43:43.205Z,98903.00
2022-12-19T05:48:58.531Z,98901.00
2022-12-19T05:54:07.186Z,98906.00
2022-12-19T05:59:16.065Z,98905.00
2022-12-19T06:04:19.601Z,98913.00
2022-12-19T06:09:22.682Z,98897.00
2022-12-19T06:14:31.156Z,98902.00
2022-12-19T06:19:35.208Z,98899.00
2022-12-19T06:24:38.285Z,98901.00
2022-12-19T06:29:41.341Z,98902.00
2022-12-19T06:35:03.754Z,98900.00
2022-12-19T06:40:08.549Z,98889.00
2022-12-19T06:45:11.507Z,98877.00
2022-12-19T06:50:14.547Z,98878.00
2022-12-19T06:55:17.744Z,98886.00
2022-12-19T07:00:22.023Z,98901.00
2022-12-19T07:05:37.390Z,98908.00
2022-12-19T07:10:44.252Z,98896.00
2022-12-19T07:15:55.722Z,98894.00
2022-12-19T07:21:28.000Z,98900.00
2022-12-19T07:26:49.696Z,98889.00
2022-12-19T07:32:08.079Z,98897.00
2022-12-19T07:37:31.115Z,98896.00
2022-12-19T07:42:47.287Z,98890.00
2022-12-19T07:48:17.772Z,98886.00
2022-12-19T07:53:36.380Z,98888.00
2022-12-19T07:58:47.057Z,98886.00
2022-12-19T08:09:41.853Z,98888.00
2022-12-19T08:14:47.293Z,98880.00
2022-12-19T08:19:50.317Z,98877.00
2022-12-19T08:24:53.303Z,98874.00
2022-12-19T08:29:56.375Z,98864.00
2022-12-19T08:35:21.424Z,98842.00
2022-12-19T08:40:29.823Z,98836.00
2022-12-19T08:45:33.114Z,98844.00
2022-12-19T08:50:36.148Z,98846.00
2022-12-19T08:55:39.239Z,98837.00
2022-12-19T09:00:42.289Z,98842.00
2022-12-19T09:06:18.637Z,98851.00
2022-12-19T09:11:47.320Z,98843.00
2022-12-19T09:17:16.666Z,98842.00
2022-12-19T09:22:41.009Z,98853.00
2022-12-19T09:28:28.307Z,98851.00
2022-12-19T09:33:43.339Z,98845.00
2022-12-19T09:38:49.851Z,98849.00
2022-12-19T09:44:15.648Z,98857.00
2022-12-19T09:49:29.992Z,98844.00
2022-12-19T09:54:52.462Z,98845.00
2022-12-19T10:00:01.812Z,98837.00
2022-12-19T10:07:02.270Z,98835.00
2022-12-19T10:12:44.974Z,98837.00
2022-12-19T10:18:12.478Z,98818.00
2022-12-19T10:23:57.802Z,98815.00
2022-12-19T10:29:29.382Z,98807.00
2022-12-19T10:34:43.882Z,98812.00
2022-12-19T10:40:28.587Z,98810.00
2022-12-19T10:45:47.106Z,98800.00
2022-12-19T10:51:16.253Z,98800.00
2022-12-19T10:56:47.847Z,98799.00
2022-12-19T11:02:04.928Z,98786.00
2022-12-19T11:07:35.111Z,98787.00
2022-12-19T11:19:01.767Z,98771.00
2022-12-19T11:29:25.675Z,98763.00
2022-12-19T11:30:43.365Z,98750.00
2022-12-19T11:35:36.790Z,98747.00
2022-12-19T11:40:57.433Z,98750.00
2022-12-19T11:46:46.459Z,98748.00
2022-12-19T11:58:15.921Z,98749.00
2022-12-19T12:04:11.324Z,98741.00
2022-12-19T12:13:51.149Z,98725.00
2022-12-19T12:29:13.866Z,98724.00
2022-12-19T12:31:40.619Z,98717.00
2022-12-19T12:31:49.895Z,98713.00
2022-12-19T12:35:54.320Z,98712.00
2022-12-19T12:39:29.888Z,98701.00
2022-12-19T12:44:45.233Z,98705.00
2022-12-19T12:49:55.976Z,98690.00
2022-12-19T12:54:59.190Z,98682.00
2022-12-19T13:00:20.333Z,98672.00
2022-12-19T13:05:47.958Z,98666.00
2022-12-19T13:11:26.609Z,98666.00
2022-12-19T13:17:14.961Z,98659.00
2022-12-19T13:22:48.293Z,98663.00
2022-12-19T13:28:31.657Z,98662.00
2022-12-19T13:34:04.927Z,98653.00
2022-12-19T13:39:58.208Z,98645.00
2022-12-19T13:45:03.281Z,98635.00
2022-12-19T13:50:59.748Z,98635.00
2022-12-19T13:56:29.083Z,98641.00
2022-12-19T14:01:54.538Z,98634.00
2022-12-19T14:07:42.775Z,98627.00
2022-12-19T14:13:59.287Z,98625.00
2022-12-19T14:18:51.237Z,98642.00
2022-12-19T14:24:27.277Z,98646.00
2022-12-19T14:30:29.205Z,98642.00
2022-12-19T14:36:09.593Z,98650.00
2022-12-19T14:40:33.863Z,98649.00
2022-12-19T14:54:11.821Z,98646.00
2022-12-19T14:54:40.651Z,98670.00
2022-12-19T14:58:52.325Z,98662.00
2022-12-19T15:04:52.467Z,98653.00
2022-12-19T15:11:06.811Z,98656.00
2022-12-19T15:16:03.532Z,98654.00
2022-12-19T15:21:40.261Z,98643.00
2022-12-19T15:27:12.861Z,98644.00
2022-12-19T15:32:33.092Z,98640.00
2022-12-19T15:38:06.405Z,98629.00
2022-12-19T15:44:02.984Z,98625.00
2022-12-19T15:49:14.963Z,98641.00
2022-12-19T15:59:50.180Z,98612.00
2022-12-19T16:05:08.690Z,98602.00
2022-12-19T16:10:15.221Z,98606.00
2022-12-19T16:15:30.524Z,98600.00
2022-12-19T16:20:39.604Z,98598.00
2022-12-19T16:25:45.606Z,98618.00
2022-12-19T16:30:58.853Z,98620.00
2022-12-19T16:36:31.200Z,98615.00
2022-12-19T16:42:15.413Z,98601.00
2022-12-19T16:47:31.029Z,98593.00
2022-12-19T16:53:11.836Z,98606.00
2022-12-19T16:58:23.329Z,98601.00
2022-12-19T17:03:37.477Z,98587.00
2022-12-19T17:08:51.024Z,98594.00
2022-12-19T17:14:06.343Z,98598.00
2022-12-19T17:19:24.710Z,98583.00
2022-12-19T17:24:28.688Z,98580.00
2022-12-19T17:29:32.083Z,98588.00
2022-12-19T17:34:36.167Z,98607.00
2022-12-19T17:39:39.971Z,98614.00
2022-12-19T17:44:43.010Z,98622.00
2022-12-19T17:49:46.720Z,98624.00
2022-12-19T17:54:49.791Z,98626.00
2022-12-19T17:59:52.776Z,98630.00
2022-12-19T18:04:55.914Z,98633.00
2022-12-19T18:09:59.181Z,98632.00
2022-12-19T18:15:02.197Z,98630.00
2022-12-19T18:20:30.949Z,98635.00
2022-12-19T18:25:36.017Z,98625.00
2022-12-19T18:30:39.935Z,98613.00
2022-12-19T18:35:45.236Z,98603.00
2022-12-19T18:41:02.565Z,98591.00
2022-12-19T18:46:33.700Z,98593.00
2022-12-19T18:51:50.357Z,98614.00
2022-12-19T18:57:05.655Z,98603.00
2022-12-19T19:02:43.331Z,98596.00
2022-12-19T19:07:48.732Z,98593.00
2022-12-19T19:13:09.947Z,98587.00
2022-12-19T19:18:33.731Z,98595.00
2022-12-19T19:24:05.429Z,98599.00
2022-12-19T19:29:19.027Z,98607.00
2022-12-19T19:34:33.119Z,98574.00
2022-12-19T19:39:37.267Z,98569.00
2022-12-19T19:44:40.367Z,98550.00
2022-12-19T19:49:43.425Z,98546.00
2022-12-19T19:54:46.517Z,98545.00
2022-12-19T19:59:49.569Z,98537.00
2022-12-19T20:05:08.346Z,98524.00
2022-12-19T20:10:16.586Z,98522.00
2022-12-19T20:15:20.643Z,98516.00
2022-12-19T20:20:25.914Z,98511.00
2022-12-19T20:25:29.209Z,98513.00
2022-12-19T20:30:32.336Z,98512.00
2022-12-19T20:35:35.569Z,98519.00
2022-12-19T20:40:38.947Z,98528.00
2022-12-19T20:45:42.042Z,98547.00
2022-12-19T20:50:45.138Z,98549.00
2022-12-19T21:01:33.416Z,98500.00
2022-12-19T21:07:00.670Z,98509.00
2022-12-19T21:12:17.991Z,98503.00
2022-12-19T21:17:47.300Z,98520.00
2022-12-19T21:23:14.069Z,98547.00
2022-12-19T21:28:31.366Z,98556.00
2022-12-19T21:33:44.256Z,98538.00
2022-12-19T21:39:08.673Z,98507.00
2022-12-19T21:44:18.549Z,98514.00
2022-12-19T21:49:26.386Z,98489.00
2022-12-19T21:54:35.614Z,98515.00
2022-12-19T21:59:38.884Z,98504.00
2022-12-19T22:04:59.358Z,98515.00
2022-12-19T22:10:06.688Z,98512.00
2022-12-19T22:15:10.024Z,98528.00
2022-12-19T22:20:13.217Z,98544.00
2022-12-19T22:25:16.403Z,98553.00
2022-12-19T22:30:19.875Z,98549.00
2022-12-19T22:35:22.878Z,98575.00
2022-12-19T22:40:27.680Z,98588.00
2022-12-19T22:45:31.891Z,98587.00
2022-12-19T22:50:35.014Z,98582.00
2022-12-19T22:55:38.595Z,98576.00
2022-12-19T23:00:42.679Z,98577.00
2022-12-19T23:05:53.344Z,98581.00
2022-12-19T23:11:14.897Z,98573.00
2022-12-19T23:16:40.117Z,98556.00
2022-12-19T23:22:00.566Z,98555.00
2022-12-19T23:27:32.153Z,98554.00
2022-12-19T23:32:53.399Z,98558.00
2022-12-19T23:38:04.558Z,98558.00
2022-12-19T23:43:21.716Z,98541.00
2022-12-19T23:48:41.247Z,98527.00
2022-12-19T23:54:04.922Z,98522.00
2022-12-19T23:59:14.594Z,98522.00
